Hattiesburg Laurel Regional Airport
KPIB : now visible

Airfield :











YOU CAN JOIN US ON...

 
LOGIN :

Register | Disclaimer

   EN    FR    IT 

 









Legend :    VFR   Marginal VFR   IFR   Intensive IFR   Very Intensive IFR
Visi :
Ceiling :
>= 8 km
>= 3000ft
5 to 8 km
1000 to 3000 ft
1500m to 5 km
500 to 1000 ft
800 to 1500m
200 to 500 ft
< 800m
< 200 ft
Symbols :   Thunderstorms  Fog  Heavy snow  Heavy precipitations  Wind > 20 kt







- Airport Elevation : 298 ft
- IATA code : PIB


KPIB - Hattiesburg Laurel Regional

CURRENT METAR :
  • 210956Z AUTO 00000KT 6SM BR CLR 22/22 A3004 RMK AO2 SLP168 T02170217

EXPIRED METARs :
  • 210856Z AUTO 00000KT 7SM FEW002 22/22 A3004 RMK AO2 SLP168 T02220222 50001
  • 210841Z AUTO 00000KT 3SM BR SCT002 22/22 A3004 RMK AO2
  • 210839Z AUTO 00000KT 1 1/2SM BR SCT002 22/22 A3004 RMK AO2
  • 210829Z AUTO 00000KT 1SM BR VV002 22/22 A3003 RMK AO2 RVRNO
  • 210816Z AUTO 00000KT 2 1/2SM BR SCT002 22/22 A3003 RMK AO2 VIS 1V5
  • 210805Z AUTO 17003KT 1 1/2SM BR FEW003 22/22 A3003 RMK AO2
  • 210756Z AUTO 00000KT 4SM BR FEW002 23/23 A3004 RMK AO2 SLP169 T02280228
  • 210746Z AUTO 00000KT 4SM BR SCT002 SCT100 23/23 A3004 RMK AO2

TAF KPIB
Valid from the 21 at 10:00 until the 22 at 06:00 UTC


211006Z 2110/2206 20003KT 5SM BR FEW002
FM211300 00000KT P6SM OVC015
FM211500 22004KT P6SM BKN040
FM212000 22005KT P6SM VCTS BKN040CB
FM220000 00000KT P6SM BKN250
KZHU FIR / North America



MET'MAP, your aeronautical weather chart ! - Copyright ORBIFLY December 2007 - Disclaimer

ORBIFLY MET'MAP TEAM :

Programming & Development : Alexandra Zaïnal
Concept & Development : Baudouin d'Aumeries
Co-Development & Prog : Marc-Olivier Méhu
Technical & hardware support : Manuel Goepfert

Contact : metmap@orbifly.com




SOURCES & CREDITS :

   NOAA       Earth
Advisory